Portada
METAR-TAF:

METAR-TAF

Aeroports :

Piney Island, Carolina del Nord, Estats Units d'Amèrica

latitud: 35-01-20N, longitud: 076-27-45W, altitud: 5 m

Observació

L'informe es va fer fa 47 minuts, a les 03:56 UTC
Vent 10 kt del Sud-Oest
Temperatura 28°C
Humitat 79%
Pressió 1017 hPa
Visibilitat: 16.1 km
Cel clar

METAR: KNBT 220356Z AUTO 22010KT 10SM CLR 28/24 A3004 RMK AO2 SLP177 T02780239 $

Hora: 00:43 (04:43 UTC)


TAF: manca

Observacions i pronòstics meteorològics de més de 4000 aeroports (METAR i TAF).

Les estacions disponibles són els punts grocs i vermells al mapa.

Posi el ratolí al punt desitjat per veure el nom de l'estació.

Feu clic per veure les observacions i els pronòstics meteorològics.

Per canviar el mapa: feu clic els botons verds amb una creu de color negre per apropar; al botó verd amb un guió per allunyar la imatge; o en les fletxes verdes per a mapes adjacents.


METAR-TAF: